sensor_id;sensor_type;location;lat;lon;timestamp;temperature;humidity
37844;DHT22;63793;57.632;18.292;2022-09-29T00:00:47;9.90;99.90
37844;DHT22;63793;57.632;18.292;2022-09-29T00:03:14;9.90;99.90
37844;DHT22;63793;57.632;18.292;2022-09-29T00:05:45;9.90;99.90
37844;DHT22;63793;57.632;18.292;2022-09-29T00:08:12;9.90;99.90
37844;DHT22;63793;57.632;18.292;2022-09-29T00:10:39;9.80;99.90
37844;DHT22;63793;57.632;18.292;2022-09-29T00:13:06;9.80;99.90
37844;DHT22;63793;57.632;18.292;2022-09-29T00:15:32;9.80;99.90
37844;DHT22;63793;57.632;18.292;2022-09-29T00:17:59;9.70;99.90
37844;DHT22;63793;57.632;18.292;2022-09-29T00:20:40;9.70;99.90
37844;DHT22;63793;57.632;18.292;2022-09-29T00:23:06;9.70;99.90
37844;DHT22;63793;57.632;18.292;2022-09-29T00:25:33;9.70;99.90
37844;DHT22;63793;57.632;18.292;2022-09-29T00:28:00;9.60;99.90
37844;DHT22;63793;57.632;18.292;2022-09-29T00:30:27;9.60;99.90
37844;DHT22;63793;57.632;18.292;2022-09-29T00:32:54;9.50;99.90
37844;DHT22;63793;57.632;18.292;2022-09-29T00:35:21;9.50;99.90
37844;DHT22;63793;57.632;18.292;2022-09-29T00:37:48;9.40;99.90
37844;DHT22;63793;57.632;18.292;2022-09-29T00:40:14;9.40;99.90
37844;DHT22;63793;57.632;18.292;2022-09-29T00:42:41;9.40;99.90
37844;DHT22;63793;57.632;18.292;2022-09-29T00:47:38;9.30;99.90
37844;DHT22;63793;57.632;18.292;2022-09-29T00:50:11;9.30;99.90
37844;DHT22;63793;57.632;18.292;2022-09-29T00:52:55;9.30;99.90
37844;DHT22;63793;57.632;18.292;2022-09-29T00:58:01;9.20;99.90
37844;DHT22;63793;57.632;18.292;2022-09-29T01:00:29;9.10;99.90
37844;DHT22;63793;57.632;18.292;2022-09-29T01:02:59;9.10;99.90
37844;DHT22;63793;57.632;18.292;2022-09-29T01:05:29;9.10;99.90
37844;DHT22;63793;57.632;18.292;2022-09-29T01:08:02;9.00;99.90
37844;DHT22;63793;57.632;18.292;2022-09-29T01:10:29;9.00;99.90
37844;DHT22;63793;57.632;18.292;2022-09-29T01:12:56;9.00;99.90
37844;DHT22;63793;57.632;18.292;2022-09-29T01:15:24;9.00;99.90
37844;DHT22;63793;57.632;18.292;2022-09-29T01:17:50;8.90;99.90
37844;DHT22;63793;57.632;18.292;2022-09-29T01:20:18;8.90;99.90
37844;DHT22;63793;57.632;18.292;2022-09-29T01:30:41;8.70;99.90
37844;DHT22;63793;57.632;18.292;2022-09-29T01:41:19;8.60;99.90
37844;DHT22;63793;57.632;18.292;2022-09-29T01:44:06;8.50;99.90
37844;DHT22;63793;57.632;18.292;2022-09-29T01:46:37;8.40;99.90
37844;DHT22;63793;57.632;18.292;2022-09-29T01:49:04;8.40;99.90
37844;DHT22;63793;57.632;18.292;2022-09-29T01:51:43;8.40;99.90
37844;DHT22;63793;57.632;18.292;2022-09-29T01:54:16;8.40;99.90
37844;DHT22;63793;57.632;18.292;2022-09-29T01:56:47;8.40;99.90
37844;DHT22;63793;57.632;18.292;2022-09-29T02:02:04;8.30;99.90
37844;DHT22;63793;57.632;18.292;2022-09-29T02:04:47;8.30;99.90
37844;DHT22;63793;57.632;18.292;2022-09-29T02:07:20;8.20;99.90
37844;DHT22;63793;57.632;18.292;2022-09-29T02:09:49;8.20;99.90
37844;DHT22;63793;57.632;18.292;2022-09-29T02:12:18;8.20;99.90
37844;DHT22;63793;57.632;18.292;2022-09-29T02:14:48;8.20;99.90
37844;DHT22;63793;57.632;18.292;2022-09-29T02:17:20;8.10;99.90
37844;DHT22;63793;57.632;18.292;2022-09-29T02:19:48;8.10;99.90
37844;DHT22;63793;57.632;18.292;2022-09-29T02:22:16;8.10;99.90
37844;DHT22;63793;57.632;18.292;2022-09-29T02:24:43;8.10;99.90
37844;DHT22;63793;57.632;18.292;2022-09-29T02:27:10;8.10;99.90
37844;DHT22;63793;57.632;18.292;2022-09-29T02:29:37;8.10;99.90
37844;DHT22;63793;57.632;18.292;2022-09-29T02:32:05;8.10;99.90
37844;DHT22;63793;57.632;18.292;2022-09-29T02:34:33;8.00;99.90
37844;DHT22;63793;57.632;18.292;2022-09-29T02:37:08;8.00;99.90
37844;DHT22;63793;57.632;18.292;2022-09-29T02:48:22;7.90;99.90
37844;DHT22;63793;57.632;18.292;2022-09-29T02:53:11;7.80;99.90
37844;DHT22;63793;57.632;18.292;2022-09-29T02:58:27;7.70;99.90
37844;DHT22;63793;57.632;18.292;2022-09-29T03:00:57;7.70;99.90
37844;DHT22;63793;57.632;18.292;2022-09-29T03:03:24;7.60;99.90
37844;DHT22;63793;57.632;18.292;2022-09-29T03:05:51;7.60;99.90
37844;DHT22;63793;57.632;18.292;2022-09-29T03:08:18;7.60;99.90
37844;DHT22;63793;57.632;18.292;2022-09-29T03:10:44;7.50;99.90
37844;DHT22;63793;57.632;18.292;2022-09-29T03:13:11;7.50;99.90
37844;DHT22;63793;57.632;18.292;2022-09-29T03:15:38;7.50;99.90
37844;DHT22;63793;57.632;18.292;2022-09-29T03:18:05;7.40;99.90
37844;DHT22;63793;57.632;18.292;2022-09-29T03:20:35;7.40;99.90
37844;DHT22;63793;57.632;18.292;2022-09-29T03:23:02;7.40;99.90
37844;DHT22;63793;57.632;18.292;2022-09-29T03:25:29;7.30;99.90
37844;DHT22;63793;57.632;18.292;2022-09-29T03:27:56;7.30;99.90
37844;DHT22;63793;57.632;18.292;2022-09-29T03:30:22;7.30;99.90
37844;DHT22;63793;57.632;18.292;2022-09-29T03:32:49;7.30;99.90
37844;DHT22;63793;57.632;18.292;2022-09-29T03:35:16;7.30;99.90
37844;DHT22;63793;57.632;18.292;2022-09-29T03:37:43;7.30;99.90
37844;DHT22;63793;57.632;18.292;2022-09-29T03:40:10;7.30;99.90
37844;DHT22;63793;57.632;18.292;2022-09-29T03:42:36;7.30;99.90
37844;DHT22;63793;57.632;18.292;2022-09-29T03:45:03;7.20;99.90
37844;DHT22;63793;57.632;18.292;2022-09-29T03:47:30;7.20;99.90
37844;DHT22;63793;57.632;18.292;2022-09-29T03:49:57;7.20;99.90
37844;DHT22;63793;57.632;18.292;2022-09-29T03:52:24;7.10;99.90
37844;DHT22;63793;57.632;18.292;2022-09-29T03:54:51;7.10;99.90
37844;DHT22;63793;57.632;18.292;2022-09-29T03:57:17;7.10;99.90
37844;DHT22;63793;57.632;18.292;2022-09-29T03:59:44;7.10;99.90
37844;DHT22;63793;57.632;18.292;2022-09-29T04:02:11;7.10;99.90
37844;DHT22;63793;57.632;18.292;2022-09-29T04:04:38;7.10;99.90
37844;DHT22;63793;57.632;18.292;2022-09-29T04:07:05;7.10;99.90
37844;DHT22;63793;57.632;18.292;2022-09-29T04:09:32;7.10;99.90
37844;DHT22;63793;57.632;18.292;2022-09-29T04:11:59;7.10;99.90
37844;DHT22;63793;57.632;18.292;2022-09-29T04:14:25;7.10;99.90
37844;DHT22;63793;57.632;18.292;2022-09-29T04:16:52;7.10;99.90
37844;DHT22;63793;57.632;18.292;2022-09-29T04:19:19;7.10;99.90
37844;DHT22;63793;57.632;18.292;2022-09-29T04:21:46;7.20;99.90
37844;DHT22;63793;57.632;18.292;2022-09-29T04:24:13;7.20;99.90
37844;DHT22;63793;57.632;18.292;2022-09-29T04:26:39;7.30;99.90
37844;DHT22;63793;57.632;18.292;2022-09-29T04:29:06;7.30;99.90
37844;DHT22;63793;57.632;18.292;2022-09-29T04:31:33;7.30;99.90
37844;DHT22;63793;57.632;18.292;2022-09-29T04:34:00;7.20;99.90
37844;DHT22;63793;57.632;18.292;2022-09-29T04:36:27;7.20;99.90
37844;DHT22;63793;57.632;18.292;2022-09-29T04:38:54;7.20;99.90
37844;DHT22;63793;57.632;18.292;2022-09-29T04:41:21;7.20;99.90
37844;DHT22;63793;57.632;18.292;2022-09-29T04:43:48;7.20;99.90
37844;DHT22;63793;57.632;18.292;2022-09-29T04:46:14;7.20;99.90
37844;DHT22;63793;57.632;18.292;2022-09-29T04:48:41;7.20;99.90
37844;DHT22;63793;57.632;18.292;2022-09-29T04:51:08;7.20;99.90
37844;DHT22;63793;57.632;18.292;2022-09-29T04:53:36;7.10;99.90
37844;DHT22;63793;57.632;18.292;2022-09-29T04:56:03;7.10;99.90
37844;DHT22;63793;57.632;18.292;2022-09-29T04:58:30;7.10;99.90
37844;DHT22;63793;57.632;18.292;2022-09-29T05:01:03;7.10;99.90
37844;DHT22;63793;57.632;18.292;2022-09-29T05:03:30;7.10;99.90
37844;DHT22;63793;57.632;18.292;2022-09-29T05:05:57;7.00;99.90
37844;DHT22;63793;57.632;18.292;2022-09-29T05:08:24;7.00;99.90
37844;DHT22;63793;57.632;18.292;2022-09-29T05:10:51;7.00;99.90
37844;DHT22;63793;57.632;18.292;2022-09-29T05:13:17;7.00;99.90
37844;DHT22;63793;57.632;18.292;2022-09-29T05:15:44;7.00;99.90
37844;DHT22;63793;57.632;18.292;2022-09-29T05:18:11;7.00;99.90
37844;DHT22;63793;57.632;18.292;2022-09-29T05:20:38;7.00;99.90
37844;DHT22;63793;57.632;18.292;2022-09-29T05:23:20;7.00;99.90
37844;DHT22;63793;57.632;18.292;2022-09-29T05:25:47;7.00;99.90
37844;DHT22;63793;57.632;18.292;2022-09-29T05:28:14;7.00;99.90
37844;DHT22;63793;57.632;18.292;2022-09-29T05:30:40;7.00;99.90
37844;DHT22;63793;57.632;18.292;2022-09-29T05:33:08;7.00;99.90
37844;DHT22;63793;57.632;18.292;2022-09-29T05:35:34;7.10;99.90
37844;DHT22;63793;57.632;18.292;2022-09-29T05:38:01;7.20;99.90
37844;DHT22;63793;57.632;18.292;2022-09-29T05:40:28;7.30;99.90
37844;DHT22;63793;57.632;18.292;2022-09-29T05:42:56;7.40;99.90
37844;DHT22;63793;57.632;18.292;2022-09-29T05:45:23;7.50;99.90
37844;DHT22;63793;57.632;18.292;2022-09-29T05:47:50;7.60;99.90
37844;DHT22;63793;57.632;18.292;2022-09-29T05:50:17;7.70;99.90
37844;DHT22;63793;57.632;18.292;2022-09-29T05:52:44;7.70;99.90
37844;DHT22;63793;57.632;18.292;2022-09-29T05:55:14;7.80;99.90
37844;DHT22;63793;57.632;18.292;2022-09-29T05:57:41;7.80;99.90
37844;DHT22;63793;57.632;18.292;2022-09-29T06:00:08;7.90;99.90
37844;DHT22;63793;57.632;18.292;2022-09-29T06:02:37;8.00;99.90
37844;DHT22;63793;57.632;18.292;2022-09-29T06:05:04;8.10;99.90
37844;DHT22;63793;57.632;18.292;2022-09-29T06:07:31;8.20;99.90
37844;DHT22;63793;57.632;18.292;2022-09-29T06:09:58;8.30;99.90
37844;DHT22;63793;57.632;18.292;2022-09-29T06:12:25;8.30;99.90
37844;DHT22;63793;57.632;18.292;2022-09-29T06:14:52;8.40;99.90
37844;DHT22;63793;57.632;18.292;2022-09-29T06:17:19;8.50;99.90
37844;DHT22;63793;57.632;18.292;2022-09-29T06:19:45;8.70;99.90
37844;DHT22;63793;57.632;18.292;2022-09-29T06:22:12;8.70;99.90
37844;DHT22;63793;57.632;18.292;2022-09-29T06:24:39;8.90;99.90
37844;DHT22;63793;57.632;18.292;2022-09-29T06:27:06;8.90;99.90
37844;DHT22;63793;57.632;18.292;2022-09-29T06:29:32;9.00;99.90
37844;DHT22;63793;57.632;18.292;2022-09-29T06:31:59;9.10;99.90
37844;DHT22;63793;57.632;18.292;2022-09-29T06:34:26;9.10;99.90
37844;DHT22;63793;57.632;18.292;2022-09-29T06:36:53;9.20;99.90
37844;DHT22;63793;57.632;18.292;2022-09-29T06:39:38;9.20;99.90
37844;DHT22;63793;57.632;18.292;2022-09-29T06:42:05;9.30;99.90
37844;DHT22;63793;57.632;18.292;2022-09-29T06:44:34;9.30;99.90
37844;DHT22;63793;57.632;18.292;2022-09-29T06:47:01;9.40;99.90
37844;DHT22;63793;57.632;18.292;2022-09-29T06:49:27;9.50;99.90
37844;DHT22;63793;57.632;18.292;2022-09-29T06:51:54;9.50;99.90
37844;DHT22;63793;57.632;18.292;2022-09-29T06:54:22;9.60;99.90
37844;DHT22;63793;57.632;18.292;2022-09-29T06:56:51;9.70;99.90
37844;DHT22;63793;57.632;18.292;2022-09-29T06:59:18;9.70;99.90
37844;DHT22;63793;57.632;18.292;2022-09-29T07:01:45;9.60;99.90
37844;DHT22;63793;57.632;18.292;2022-09-29T07:04:17;9.60;99.90
37844;DHT22;63793;57.632;18.292;2022-09-29T07:06:45;9.60;99.90
37844;DHT22;63793;57.632;18.292;2022-09-29T07:09:12;9.50;99.90
37844;DHT22;63793;57.632;18.292;2022-09-29T07:11:42;9.50;99.90
37844;DHT22;63793;57.632;18.292;2022-09-29T07:14:13;9.50;99.90
37844;DHT22;63793;57.632;18.292;2022-09-29T07:16:40;9.50;99.90
37844;DHT22;63793;57.632;18.292;2022-09-29T07:19:07;9.50;99.90
37844;DHT22;63793;57.632;18.292;2022-09-29T07:21:34;9.50;99.90
37844;DHT22;63793;57.632;18.292;2022-09-29T07:24:01;9.40;99.90
37844;DHT22;63793;57.632;18.292;2022-09-29T07:26:28;9.40;99.90
37844;DHT22;63793;57.632;18.292;2022-09-29T07:28:55;9.30;99.90
37844;DHT22;63793;57.632;18.292;2022-09-29T07:31:22;9.30;99.90
37844;DHT22;63793;57.632;18.292;2022-09-29T07:33:49;9.40;99.90
37844;DHT22;63793;57.632;18.292;2022-09-29T07:36:17;9.50;99.90
37844;DHT22;63793;57.632;18.292;2022-09-29T07:38:49;9.60;99.90
37844;DHT22;63793;57.632;18.292;2022-09-29T07:41:17;9.90;99.90
37844;DHT22;63793;57.632;18.292;2022-09-29T07:43:44;10.10;99.90
37844;DHT22;63793;57.632;18.292;2022-09-29T07:46:11;10.30;99.90
37844;DHT22;63793;57.632;18.292;2022-09-29T07:48:38;10.50;99.90
37844;DHT22;63793;57.632;18.292;2022-09-29T07:53:38;10.70;99.90
37844;DHT22;63793;57.632;18.292;2022-09-29T07:56:10;10.70;99.90
37844;DHT22;63793;57.632;18.292;2022-09-29T07:58:38;10.70;99.90
37844;DHT22;63793;57.632;18.292;2022-09-29T08:01:05;10.70;99.90
37844;DHT22;63793;57.632;18.292;2022-09-29T08:03:36;10.80;99.90
37844;DHT22;63793;57.632;18.292;2022-09-29T08:06:05;10.80;99.90
37844;DHT22;63793;57.632;18.292;2022-09-29T08:08:33;10.90;99.90
37844;DHT22;63793;57.632;18.292;2022-09-29T08:11:03;10.90;99.90
37844;DHT22;63793;57.632;18.292;2022-09-29T08:13:31;10.80;99.90
37844;DHT22;63793;57.632;18.292;2022-09-29T08:15:59;10.80;99.90
37844;DHT22;63793;57.632;18.292;2022-09-29T08:18:26;10.80;99.90
37844;DHT22;63793;57.632;18.292;2022-09-29T08:20:54;10.70;99.90
37844;DHT22;63793;57.632;18.292;2022-09-29T08:23:25;10.70;99.90
37844;DHT22;63793;57.632;18.292;2022-09-29T08:26:03;10.70;99.90
37844;DHT22;63793;57.632;18.292;2022-09-29T08:28:30;10.80;99.90
37844;DHT22;63793;57.632;18.292;2022-09-29T08:31:02;10.80;99.90
37844;DHT22;63793;57.632;18.292;2022-09-29T08:33:30;10.90;99.90
37844;DHT22;63793;57.632;18.292;2022-09-29T08:35:57;11.00;99.90
37844;DHT22;63793;57.632;18.292;2022-09-29T08:38:25;11.10;99.90
37844;DHT22;63793;57.632;18.292;2022-09-29T08:40:53;11.10;99.90
37844;DHT22;63793;57.632;18.292;2022-09-29T08:43:28;11.20;99.90
37844;DHT22;63793;57.632;18.292;2022-09-29T08:46:01;11.20;99.90
37844;DHT22;63793;57.632;18.292;2022-09-29T08:48:32;11.30;99.90
37844;DHT22;63793;57.632;18.292;2022-09-29T08:51:03;11.30;99.90
37844;DHT22;63793;57.632;18.292;2022-09-29T08:53:34;11.40;99.90
37844;DHT22;63793;57.632;18.292;2022-09-29T08:56:06;11.50;99.90
37844;DHT22;63793;57.632;18.292;2022-09-29T08:58:35;11.50;99.90
37844;DHT22;63793;57.632;18.292;2022-09-29T09:06:25;11.60;99.90
37844;DHT22;63793;57.632;18.292;2022-09-29T09:08:59;11.50;99.90
37844;DHT22;63793;57.632;18.292;2022-09-29T09:14:11;11.50;99.90
37844;DHT22;63793;57.632;18.292;2022-09-29T09:21:54;11.40;99.90
37844;DHT22;63793;57.632;18.292;2022-09-29T09:24:27;11.30;99.90
37844;DHT22;63793;57.632;18.292;2022-09-29T09:26:55;11.30;99.90
37844;DHT22;63793;57.632;18.292;2022-09-29T09:31:53;11.20;99.90
37844;DHT22;63793;57.632;18.292;2022-09-29T09:37:05;11.30;99.90
37844;DHT22;63793;57.632;18.292;2022-09-29T09:40:18;11.40;99.90
37844;DHT22;63793;57.632;18.292;2022-09-29T09:42:25;11.30;99.90
37844;DHT22;63793;57.632;18.292;2022-09-29T09:45:03;11.30;99.90
37844;DHT22;63793;57.632;18.292;2022-09-29T09:47:32;11.20;99.90
37844;DHT22;63793;57.632;18.292;2022-09-29T09:50:11;11.10;99.90
37844;DHT22;63793;57.632;18.292;2022-09-29T09:52:46;11.10;99.90
37844;DHT22;63793;57.632;18.292;2022-09-29T09:55:15;11.10;99.90
37844;DHT22;63793;57.632;18.292;2022-09-29T10:00:38;11.20;99.90
37844;DHT22;63793;57.632;18.292;2022-09-29T10:03:07;11.40;99.90
37844;DHT22;63793;57.632;18.292;2022-09-29T10:05:36;11.60;99.90
37844;DHT22;63793;57.632;18.292;2022-09-29T10:08:05;11.70;99.90
37844;DHT22;63793;57.632;18.292;2022-09-29T10:10:32;11.70;99.90
37844;DHT22;63793;57.632;18.292;2022-09-29T10:13:06;11.90;99.90
37844;DHT22;63793;57.632;18.292;2022-09-29T10:15:36;12.00;99.90
37844;DHT22;63793;57.632;18.292;2022-09-29T10:18:11;12.00;99.90
37844;DHT22;63793;57.632;18.292;2022-09-29T10:20:39;12.10;99.90
37844;DHT22;63793;57.632;18.292;2022-09-29T10:26:32;12.20;99.90
37844;DHT22;63793;57.632;18.292;2022-09-29T10:28:40;12.40;99.90
37844;DHT22;63793;57.632;18.292;2022-09-29T10:33:48;12.60;99.90
37844;DHT22;63793;57.632;18.292;2022-09-29T10:36:16;12.50;99.90
37844;DHT22;63793;57.632;18.292;2022-09-29T10:38:46;12.40;99.90
37844;DHT22;63793;57.632;18.292;2022-09-29T10:41:14;12.40;99.90
37844;DHT22;63793;57.632;18.292;2022-09-29T10:43:41;12.30;99.90
37844;DHT22;63793;57.632;18.292;2022-09-29T10:51:40;12.60;99.90
37844;DHT22;63793;57.632;18.292;2022-09-29T10:54:08;12.70;99.90
37844;DHT22;63793;57.632;18.292;2022-09-29T10:56:36;12.70;99.90
37844;DHT22;63793;57.632;18.292;2022-09-29T10:59:10;12.60;99.90
37844;DHT22;63793;57.632;18.292;2022-09-29T11:01:42;12.60;99.90
37844;DHT22;63793;57.632;18.292;2022-09-29T11:04:16;12.50;99.90
37844;DHT22;63793;57.632;18.292;2022-09-29T11:06:44;12.50;99.90
37844;DHT22;63793;57.632;18.292;2022-09-29T11:11:39;12.70;99.90
37844;DHT22;63793;57.632;18.292;2022-09-29T11:17:24;12.80;99.90
37844;DHT22;63793;57.632;18.292;2022-09-29T11:19:51;12.80;99.90
37844;DHT22;63793;57.632;18.292;2022-09-29T11:22:26;12.70;99.90
37844;DHT22;63793;57.632;18.292;2022-09-29T11:32:52;12.80;99.90
37844;DHT22;63793;57.632;18.292;2022-09-29T11:46:04;13.60;99.90
37844;DHT22;63793;57.632;18.292;2022-09-29T11:56:40;13.80;99.90
37844;DHT22;63793;57.632;18.292;2022-09-29T12:02:03;14.20;99.90
37844;DHT22;63793;57.632;18.292;2022-09-29T12:12:36;14.00;99.90
37844;DHT22;63793;57.632;18.292;2022-09-29T12:15:08;13.40;99.90
37844;DHT22;63793;57.632;18.292;2022-09-29T12:17:45;13.10;99.90
37844;DHT22;63793;57.632;18.292;2022-09-29T12:20:21;12.70;99.90
37844;DHT22;63793;57.632;18.292;2022-09-29T12:22:49;12.40;99.90
37844;DHT22;63793;57.632;18.292;2022-09-29T12:25:19;12.10;99.90
37844;DHT22;63793;57.632;18.292;2022-09-29T12:27:47;12.00;99.90
37844;DHT22;63793;57.632;18.292;2022-09-29T12:30:25;11.70;99.90
37844;DHT22;63793;57.632;18.292;2022-09-29T12:35:45;11.60;99.90
37844;DHT22;63793;57.632;18.292;2022-09-29T12:38:27;11.50;99.90
37844;DHT22;63793;57.632;18.292;2022-09-29T12:41:05;11.40;99.90
37844;DHT22;63793;57.632;18.292;2022-09-29T12:46:16;11.50;99.90
37844;DHT22;63793;57.632;18.292;2022-09-29T12:56:23;11.50;99.90
37844;DHT22;63793;57.632;18.292;2022-09-29T12:58:53;11.60;99.90
37844;DHT22;63793;57.632;18.292;2022-09-29T13:01:22;11.70;99.90
37844;DHT22;63793;57.632;18.292;2022-09-29T13:11:46;11.80;99.90
37844;DHT22;63793;57.632;18.292;2022-09-29T13:14:37;11.80;99.90
37844;DHT22;63793;57.632;18.292;2022-09-29T13:17:12;11.80;99.90
37844;DHT22;63793;57.632;18.292;2022-09-29T13:22:35;11.90;99.90
37844;DHT22;63793;57.632;18.292;2022-09-29T13:27:53;12.00;99.90
37844;DHT22;63793;57.632;18.292;2022-09-29T13:30:24;12.10;99.90
37844;DHT22;63793;57.632;18.292;2022-09-29T13:32:53;12.10;99.90
37844;DHT22;63793;57.632;18.292;2022-09-29T13:35:22;12.10;99.90
37844;DHT22;63793;57.632;18.292;2022-09-29T13:37:51;12.10;99.90
37844;DHT22;63793;57.632;18.292;2022-09-29T13:40:23;12.10;99.90
37844;DHT22;63793;57.632;18.292;2022-09-29T13:42:52;12.20;99.90
37844;DHT22;63793;57.632;18.292;2022-09-29T13:47:58;12.40;99.90
37844;DHT22;63793;57.632;18.292;2022-09-29T13:50:43;12.50;99.90
37844;DHT22;63793;57.632;18.292;2022-09-29T13:56:09;12.40;99.90
37844;DHT22;63793;57.632;18.292;2022-09-29T13:58:39;12.30;99.90
37844;DHT22;63793;57.632;18.292;2022-09-29T14:01:32;12.30;99.90
37844;DHT22;63793;57.632;18.292;2022-09-29T14:06:46;12.20;99.90
37844;DHT22;63793;57.632;18.292;2022-09-29T14:09:16;12.20;99.90
37844;DHT22;63793;57.632;18.292;2022-09-29T14:11:48;12.20;99.90
37844;DHT22;63793;57.632;18.292;2022-09-29T14:16:48;12.20;99.90
37844;DHT22;63793;57.632;18.292;2022-09-29T14:22:01;12.20;99.90
37844;DHT22;63793;57.632;18.292;2022-09-29T14:37:47;12.00;99.90
37844;DHT22;63793;57.632;18.292;2022-09-29T14:40:16;12.00;99.90
37844;DHT22;63793;57.632;18.292;2022-09-29T14:43:12;12.00;99.90
37844;DHT22;63793;57.632;18.292;2022-09-29T14:46:04;11.90;99.90
37844;DHT22;63793;57.632;18.292;2022-09-29T14:51:50;11.90;99.90
37844;DHT22;63793;57.632;18.292;2022-09-29T14:57:02;11.90;99.90
37844;DHT22;63793;57.632;18.292;2022-09-29T14:59:38;12.00;99.90
37844;DHT22;63793;57.632;18.292;2022-09-29T15:04:45;11.90;99.90
37844;DHT22;63793;57.632;18.292;2022-09-29T15:07:13;11.80;99.90
37844;DHT22;63793;57.632;18.292;2022-09-29T15:09:46;11.80;99.90
37844;DHT22;63793;57.632;18.292;2022-09-29T15:12:14;11.70;99.90
37844;DHT22;63793;57.632;18.292;2022-09-29T15:14:41;11.70;99.90
37844;DHT22;63793;57.632;18.292;2022-09-29T15:17:19;11.70;99.90
37844;DHT22;63793;57.632;18.292;2022-09-29T15:20:26;11.60;99.90
37844;DHT22;63793;57.632;18.292;2022-09-29T15:27:41;11.60;99.90
37844;DHT22;63793;57.632;18.292;2022-09-29T15:30:13;11.50;99.90
37844;DHT22;63793;57.632;18.292;2022-09-29T15:32:43;11.50;99.90
37844;DHT22;63793;57.632;18.292;2022-09-29T15:35:12;11.40;99.90
37844;DHT22;63793;57.632;18.292;2022-09-29T15:40:19;11.30;99.90
37844;DHT22;63793;57.632;18.292;2022-09-29T15:42:47;11.30;99.90
37844;DHT22;63793;57.632;18.292;2022-09-29T15:45:18;11.20;99.90
37844;DHT22;63793;57.632;18.292;2022-09-29T15:47:47;11.10;99.90
37844;DHT22;63793;57.632;18.292;2022-09-29T15:50:18;11.10;99.90
37844;DHT22;63793;57.632;18.292;2022-09-29T15:52:46;11.00;99.90
37844;DHT22;63793;57.632;18.292;2022-09-29T15:55:15;11.00;99.90
37844;DHT22;63793;57.632;18.292;2022-09-29T15:57:43;11.00;99.90
37844;DHT22;63793;57.632;18.292;2022-09-29T16:05:19;10.70;99.90
37844;DHT22;63793;57.632;18.292;2022-09-29T16:07:47;10.70;99.90
37844;DHT22;63793;57.632;18.292;2022-09-29T16:10:17;10.60;99.90
37844;DHT22;63793;57.632;18.292;2022-09-29T16:12:54;10.50;99.90
37844;DHT22;63793;57.632;18.292;2022-09-29T16:15:32;10.50;99.90
37844;DHT22;63793;57.632;18.292;2022-09-29T16:18:00;10.50;99.90
37844;DHT22;63793;57.632;18.292;2022-09-29T16:20:28;10.50;99.90
37844;DHT22;63793;57.632;18.292;2022-09-29T16:22:56;10.50;99.90
37844;DHT22;63793;57.632;18.292;2022-09-29T16:25:24;10.50;99.90
37844;DHT22;63793;57.632;18.292;2022-09-29T16:28:00;10.50;99.90
37844;DHT22;63793;57.632;18.292;2022-09-29T16:30:30;10.50;99.90
37844;DHT22;63793;57.632;18.292;2022-09-29T16:33:01;10.50;99.90
37844;DHT22;63793;57.632;18.292;2022-09-29T16:35:35;10.40;99.90
37844;DHT22;63793;57.632;18.292;2022-09-29T16:40:51;10.30;99.90
37844;DHT22;63793;57.632;18.292;2022-09-29T16:43:19;10.20;99.90
37844;DHT22;63793;57.632;18.292;2022-09-29T16:45:49;10.10;99.90
37844;DHT22;63793;57.632;18.292;2022-09-29T16:48:17;10.10;99.90
37844;DHT22;63793;57.632;18.292;2022-09-29T16:50:45;10.00;99.90
37844;DHT22;63793;57.632;18.292;2022-09-29T16:53:23;10.00;99.90
37844;DHT22;63793;57.632;18.292;2022-09-29T16:55:58;9.90;99.90
37844;DHT22;63793;57.632;18.292;2022-09-29T16:58:25;9.90;99.90
37844;DHT22;63793;57.632;18.292;2022-09-29T17:00:53;9.80;99.90
37844;DHT22;63793;57.632;18.292;2022-09-29T17:03:19;9.80;99.90
37844;DHT22;63793;57.632;18.292;2022-09-29T17:05:46;9.80;99.90
37844;DHT22;63793;57.632;18.292;2022-09-29T17:08:18;9.80;99.90
37844;DHT22;63793;57.632;18.292;2022-09-29T17:10:51;9.70;99.90
37844;DHT22;63793;57.632;18.292;2022-09-29T17:13:18;9.70;99.90
37844;DHT22;63793;57.632;18.292;2022-09-29T17:15:46;9.70;99.90
37844;DHT22;63793;57.632;18.292;2022-09-29T17:18:15;9.60;99.90
37844;DHT22;63793;57.632;18.292;2022-09-29T17:20:42;9.60;99.90
37844;DHT22;63793;57.632;18.292;2022-09-29T17:23:09;9.60;99.90
37844;DHT22;63793;57.632;18.292;2022-09-29T17:25:37;9.50;99.90
37844;DHT22;63793;57.632;18.292;2022-09-29T17:28:09;9.50;99.90
37844;DHT22;63793;57.632;18.292;2022-09-29T17:30:38;9.50;99.90
37844;DHT22;63793;57.632;18.292;2022-09-29T17:33:05;9.40;99.90
37844;DHT22;63793;57.632;18.292;2022-09-29T17:35:39;9.40;99.90
37844;DHT22;63793;57.632;18.292;2022-09-29T17:38:06;9.30;99.90
37844;DHT22;63793;57.632;18.292;2022-09-29T17:40:36;9.30;99.90
37844;DHT22;63793;57.632;18.292;2022-09-29T17:43:04;9.30;99.90
37844;DHT22;63793;57.632;18.292;2022-09-29T17:45:31;9.30;99.90
37844;DHT22;63793;57.632;18.292;2022-09-29T17:48:01;9.30;99.90
37844;DHT22;63793;57.632;18.292;2022-09-29T17:50:28;9.30;99.90
37844;DHT22;63793;57.632;18.292;2022-09-29T17:52:56;9.30;99.90
37844;DHT22;63793;57.632;18.292;2022-09-29T17:55:25;9.30;99.90
37844;DHT22;63793;57.632;18.292;2022-09-29T17:57:52;9.20;99.90
37844;DHT22;63793;57.632;18.292;2022-09-29T18:02:49;9.20;99.90
37844;DHT22;63793;57.632;18.292;2022-09-29T18:05:17;9.20;99.90
37844;DHT22;63793;57.632;18.292;2022-09-29T18:07:49;9.20;99.90
37844;DHT22;63793;57.632;18.292;2022-09-29T18:10:18;9.10;99.90
37844;DHT22;63793;57.632;18.292;2022-09-29T18:12:45;9.10;99.90
37844;DHT22;63793;57.632;18.292;2022-09-29T18:15:12;9.20;99.90
37844;DHT22;63793;57.632;18.292;2022-09-29T18:17:40;9.20;99.90
37844;DHT22;63793;57.632;18.292;2022-09-29T18:20:11;9.20;99.90
37844;DHT22;63793;57.632;18.292;2022-09-29T18:22:40;9.20;99.90
37844;DHT22;63793;57.632;18.292;2022-09-29T18:25:07;9.20;99.90
37844;DHT22;63793;57.632;18.292;2022-09-29T18:27:34;9.30;99.90
37844;DHT22;63793;57.632;18.292;2022-09-29T18:30:02;9.30;99.90
37844;DHT22;63793;57.632;18.292;2022-09-29T18:32:29;9.30;99.90
37844;DHT22;63793;57.632;18.292;2022-09-29T18:34:55;9.30;99.90
37844;DHT22;63793;57.632;18.292;2022-09-29T18:37:22;9.40;99.90
37844;DHT22;63793;57.632;18.292;2022-09-29T18:39:49;9.40;99.90
37844;DHT22;63793;57.632;18.292;2022-09-29T18:42:16;9.40;99.90
37844;DHT22;63793;57.632;18.292;2022-09-29T18:44:43;9.40;99.90
37844;DHT22;63793;57.632;18.292;2022-09-29T18:47:09;9.40;99.90
37844;DHT22;63793;57.632;18.292;2022-09-29T18:49:38;9.40;99.90
37844;DHT22;63793;57.632;18.292;2022-09-29T18:52:05;9.40;99.90
37844;DHT22;63793;57.632;18.292;2022-09-29T18:54:31;9.40;99.90